Main page
METAR-TAF:

METAR-TAF

Airports :

Christchurch International Airport

Christchurch, New Zealand

latitude: 43-29S, longitude: 172-33E, elevation: 38 m

Current weather observation

The report was made 19 minutes ago, at 21:00 UTC
Wind 14 kt from the East
Temperature 15°C
Humidity 77%
Pressure 1025 hPa
Visibility 10 km or more

METAR: NZCH 132100Z AUTO 08014KT 9999 BKN011/// 15/11 Q1025 BECMG SCT011

Time: 10:19 (21:19 UTC)

Forecast

The report was made 4 hours and 8 minutes ago, at 17:11 UTC
Forecast valid from 13 at 18 UTC to 14 at 18 UTC
Wind 5 kt from the East/Northeast
Visibility 10 km or more
Few clouds at a height of 2000 ft
Temporary
from 13 at 18 UTC to 13 at 21 UTC
Broken clouds at a height of 1000 ft
Becoming
from 13 at 20 UTC to 13 at 22 UTC
Wind 15 kt from the East/Northeast
Becoming
from 14 at 08 UTC to 14 at 10 UTC
Wind 2 kt from variable directions

TAF: NZCH 131711Z 1318/1418 07005KT 9999 FEW020 TEMPO 1318/1321 BKN010 BECMG 1320/1322 06015KT BECMG 1408/1410 VRB02KT

Weather observations and forecasts of more than 4000 airports (METAR and TAF reports).

The available stations are represented by yellow and red dots on the map.

Hover mouse over dot to see the name of the station.

Then click to see weather observations and forecasts.

To change the map : click on the green buttons with a black cross to zoom in, on the green button with a dash to zoom out, or on the green arrows for adjacent maps.


METAR-TAF: